Latest Weather Observations for Lajamanu

IDD60801

Issued at 7:31 am CST Friday 19 December 2014 (issued every 30 minutes, with the page automatically refreshed every 10 minutes)

About weather observations | Map of weather stations | Latest weather observations for NT | Other Formats
Station Details ID: 014829 Name: LAJAMANU AIRPORT Lat: -18.33 Lon: 130.64 Height: 315.6 m
Data from the previous 72 hours. | See also: Recent months at Lajamanu
Date/Time
CST
Temp
°C
App
Temp
°C
Dew
Point
Rel
Hum
%
Delta-T
°C
Wind Press
QNH
hPa
Press
MSL
hPa
Rain
since 9 am
mm
Dir
 
Spd
km/h
Gust
km/h
Spd
kts
Gust
kts
19/07:30am 29.7 31.5 20.3 57 6.3 SE 11 17 6 9 1012.3 1009.8 0.0
19/07:00am 28.1 30.5 20.9 65 4.8 SE 9 11 5 6 1012.2 1009.7 0.0
19/06:30am 26.5 29.0 21.0 72 3.7 E 9 11 5 6 1011.6 1009.1 0.0
19/06:00am 25.9 28.2 20.7 73 3.5 E 9 11 5 6 1011.2 1008.7 0.0
19/05:30am 26.4 29.1 20.3 69 4.0 ESE 6 7 3 4 1010.8 1008.2 0.0
19/05:00am 26.5 30.3 20.1 68 4.2 CALM 0 7 0 4 1010.5 1007.9 0.0
19/04:30am 26.7 30.6 20.3 68 4.2 CALM 0 7 0 4 1010.4 1007.8 0.0
19/04:00am 27.2 30.4 20.5 67 4.5 SSW 4 9 2 5 1010.3 1007.7 0.0
19/03:30am 27.3 31.2 20.4 66 4.6 CALM 0 6 0 3 1010.3 1007.7 0.0
19/03:00am 27.5 30.2 20.6 66 4.6 SSW 7 9 4 5 1010.2 1007.6 0.0
19/02:30am 27.6 29.6 20.7 66 4.6 SSW 11 13 6 7 1010.2 1007.6 0.0
19/02:00am 27.6 29.7 20.9 67 4.5 SSW 11 15 6 8 1010.3 1007.7 0.0
19/01:30am 27.9 29.6 21.0 66 4.6 SSW 13 19 7 10 1010.5 1007.9 0.0
19/01:00am 28.1 30.4 20.6 63 5.0 SW 9 17 5 9 1010.6 1008.0 0.0
19/12:30am 28.1 31.5 20.1 62 5.3 SSW 2 7 1 4 1010.7 1008.1 0.0
19/12:00am 28.6 31.2 20.1 60 5.6 SW 6 7 3 4 1011.0 1008.5 0.0
 
Date/Time
CST
Temp
°C
App
Temp
°C
Dew
Point
Rel
Hum
%
Delta-T
°C
Wind Press
QNH
hPa
Press
MSL
hPa
Rain
since 9 am
mm
Dir
 
Spd
km/h
Gust
km/h
Spd
kts
Gust
kts
18/11:30pm 28.4 30.0 19.1 57 6.1 WSW 9 13 5 7 1010.8 1008.2 0.0
18/11:00pm 28.9 30.9 18.7 54 6.6 W 6 7 3 4 1010.9 1008.4 0.0
18/10:30pm 29.4 30.1 18.8 53 6.9 NNW 13 15 7 8 1010.7 1008.1 0.0
18/10:00pm 29.5 30.9 19.5 55 6.6 NNW 11 15 6 8 1010.2 1007.6 0.0
18/09:30pm 30.0 31.1 19.7 54 6.8 NW 13 17 7 9 1010.1 1007.5 0.0
18/09:00pm 30.4 30.2 19.4 51 7.3 NNW 19 24 10 13 1009.9 1007.3 0.0
18/08:30pm 30.9 30.1 19.3 50 7.7 NNW 22 30 12 16 1010.2 1007.6 0.0
18/08:00pm 31.2 33.3 21.7 57 6.5 NW 13 26 7 14 1010.2 1007.6 0.0
18/07:30pm 31.3 33.4 20.9 54 7.0 W 11 17 6 9 1009.3 1006.8 0.0
18/07:00pm 32.2 33.7 19.8 48 8.3 WSW 11 17 6 9 1008.9 1006.4 0.0
18/06:30pm 33.0 34.2 19.1 43 9.2 SW 11 15 6 8 1008.1 1005.6 0.0
18/06:00pm 34.0 34.8 18.1 39 10.4 SSW 11 17 6 9 1007.4 1004.8 0.0
18/05:30pm 34.7 35.3 18.7 38 10.6 SSW 13 17 7 9 1007.3 1004.7 0.0
18/05:00pm 35.2 34.5 18.3 36 11.1 S 19 28 10 15 1007.2 1004.6 0.0
18/04:30pm 34.6 33.3 17.3 35 11.3 S 20 30 11 16 1007.3 1004.7 0.0
18/04:00pm 34.2 33.5 18.7 40 10.3 S 20 32 11 17 1007.4 1004.8 0.0
18/03:30pm 34.7 33.1 17.4 35 11.3 S 22 33 12 18 1007.7 1005.1 0.0
18/03:00pm 35.2 36.6 19.6 40 10.5 SSW 11 15 6 8 1008.0 1005.5 0.0
18/02:30pm 32.6 34.2 19.1 44 9.0 SW 9 13 5 7 1008.0 1005.5 0.0
18/02:00pm 31.6 31.7 17.5 43 9.1 SSW 13 19 7 10 1008.5 1006.0 0.0
18/01:30pm 28.9 28.0 19.8 58 6.0 SW 24 41 13 22 1010.0 1007.4 0.0
18/01:10pm 27.3 25.2 20.6 67 4.5 W 32 50 17 27 1010.7 1008.1 0.0
18/01:00pm 29.3 27.8 17.8 50 7.4 SW 22 41 12 22 1010.5 1007.9 0.0
18/12:58pm 30.7 29.4 16.7 43 8.9 S 19 41 10 22 1010.6 1008.0 0.0
18/12:30pm 36.7 34.1 15.8 29 13.4 SE 24 35 13 19 1009.6 1007.0 0.0
18/12:00pm 37.0 33.5 15.5 28 13.7 ESE 28 39 15 21 1010.1 1007.5 0.0
18/11:30am 37.4 35.9 16.4 29 13.6 SSE 19 26 10 14 1010.3 1007.7 0.0
18/11:00am 36.3 36.0 16.5 31 12.8 SSE 13 22 7 12 1010.5 1007.9 0.0
18/10:30am 35.3 35.8 17.5 34 11.6 S 11 17 6 9 1010.6 1008.0 0.0
18/10:00am 33.7 34.7 18.6 40 10.0 SW 11 17 6 9 1010.7 1008.1 0.0
18/09:30am 32.5 32.2 18.3 43 9.3 SW 17 22 9 12 1010.5 1007.9 0.0
18/09:00am 33.1 33.8 19.6 45 9.0 WSW 15 22 8 12 1010.5 1007.9 0.0
18/08:30am 31.2 32.2 19.5 49 7.8 WSW 13 20 7 11 1010.3 1007.7 0.0
18/08:00am 30.2 31.9 20.2 55 6.7 WSW 11 15 6 8 1010.0 1007.4 0.0
18/07:30am 30.5 31.9 19.5 51 7.3 WNW 11 15 6 8 1010.0 1007.4 0.0
18/07:00am 30.1 31.4 19.2 52 7.2 WSW 11 15 6 8 1009.7 1007.1 0.0
18/06:30am 29.6 30.8 19.0 53 7.0 WSW 11 20 6 11 1008.8 1006.3 0.0
18/06:00am 29.5 30.8 19.2 54 6.8 W 11 20 6 11 1008.1 1005.6 0.0
18/05:30am 28.8 30.8 20.0 59 5.8 NW 9 11 5 6 1007.7 1005.1 0.0
18/05:00am 29.0 31.5 19.9 58 6.0 NNW 6 7 3 4 1007.5 1004.9 0.0
18/04:30am 29.2 30.7 19.8 57 6.2 NW 11 15 6 8 1007.2 1004.6 0.0
18/04:00am 29.2 30.2 19.5 56 6.4 NW 13 15 7 8 1006.9 1004.3 0.0
18/03:30am 29.2 30.7 19.8 57 6.2 NW 11 13 6 7 1006.8 1004.2 0.0
18/03:00am 29.2 30.8 19.2 54 6.6 NW 9 11 5 6 1006.7 1004.1 0.0
18/02:30am 29.7 31.2 18.8 52 7.1 NW 9 13 5 7 1006.7 1004.1 0.0
18/02:00am 30.4 31.0 18.5 49 7.8 NW 13 17 7 9 1006.4 1003.8 0.0
18/01:30am 31.0 31.3 18.0 45 8.5 NW 13 19 7 10 1006.6 1004.0 0.0
18/01:00am 31.3 31.2 17.9 44 8.7 NW 15 20 8 11 1006.8 1004.2 0.0
18/12:30am 31.5 31.2 17.4 43 9.1 NW 15 19 8 10 1007.0 1004.4 0.0
18/12:00am 31.0 31.3 18.0 45 8.5 NW 13 17 7 9 1007.3 1004.7 0.0
 
Date/Time
CST
Temp
°C
App
Temp
°C
Dew
Point
Rel
Hum
%
Delta-T
°C
Wind Press
QNH
hPa
Press
MSL
hPa
Rain
since 9 am
mm
Dir
 
Spd
km/h
Gust
km/h
Spd
kts
Gust
kts
17/11:30pm 31.3 31.6 17.9 44 8.7 NNW 13 17 7 9 1007.4 1004.8 0.0
17/11:00pm 32.0 32.0 17.1 41 9.6 NNW 13 15 7 8 1007.4 1004.8 0.0
17/10:30pm 32.7 32.4 16.5 37 10.4 NNW 13 19 7 10 1007.2 1004.6 0.0
17/10:00pm 33.4 33.0 16.3 36 10.9 NNW 13 17 7 9 1006.7 1004.1 0.0
17/09:30pm 33.7 33.5 18.6 40 10.0 N 17 26 9 14 1006.5 1003.9 0.0
17/09:00pm 33.5 34.6 17.2 37 10.6 W 7 9 4 5 1005.9 1003.4 0.0
17/08:30pm 34.3 34.6 17.1 36 11.2 WSW 11 15 6 8 1005.6 1003.1 0.0
17/08:00pm 35.1 35.9 16.4 32 12.0 WNW 7 7 4 4 1005.2 1002.7 0.0
17/07:30pm 35.8 36.3 15.5 29 13.0 WNW 7 9 4 5 1004.8 1002.2 0.0
17/07:00pm 37.5 37.5 14.1 24 14.7 WNW 7 9 4 5 1004.5 1001.9 0.0
17/06:30pm 38.8 39.3 13.9 22 15.7 NNW 4 9 2 5 1004.1 1001.5 0.0
17/06:00pm 40.6 40.5 14.0 21 16.9 W 7 15 4 8 1003.6 1001.0 0.0
17/05:30pm 40.2 39.0 12.9 20 17.1 SE 11 15 6 8 1003.5 1000.9 0.0
17/05:00pm 40.8 39.4 13.4 20 17.2 S 13 22 7 12 1003.5 1000.9 0.0
17/04:30pm 41.0 39.7 13.6 20 17.3 SW 13 20 7 11 1003.7 1001.1 0.0
17/04:00pm 40.9 40.4 15.0 22 16.6 WNW 11 20 6 11 1003.6 1001.0 0.0
17/03:30pm 40.1 38.6 14.3 22 16.4 SW 15 24 8 13 1003.9 1001.3 0.0
17/03:00pm 40.3 39.3 14.5 22 16.5 SW 13 20 7 11 1004.4 1001.8 0.0
17/02:30pm 41.0 39.4 15.1 22 16.7 SW 17 35 9 19 1004.9 1002.3 0.0
17/02:00pm 39.2 37.7 14.3 23 15.8 SSE 15 24 8 13 1005.7 1003.2 0.0
17/01:30pm 39.2 37.9 14.9 23 15.5 SSW 15 20 8 11 1006.3 1003.7 0.0
17/01:00pm 38.6 36.2 14.4 24 15.3 SW 20 33 11 18 1006.7 1004.1 0.0
17/12:30pm 38.6 36.6 15.0 24 15.1 S 19 33 10 18 1007.1 1004.5 0.0
17/12:00pm 38.5 36.2 15.6 26 14.7 SSW 22 32 12 17 1007.7 1005.1 0.0
17/11:30am 37.8 35.7 16.1 27 14.0 SSW 22 37 12 20 1008.1 1005.6 0.0
17/11:00am 36.8 34.4 16.4 30 13.2 SSW 24 37 13 20 1008.5 1006.0 0.0
17/10:30am 35.9 33.0 16.1 30 12.7 SSW 26 35 14 19 1008.9 1006.4 0.0
17/10:00am 34.9 31.7 16.2 32 12.0 SSW 28 39 15 21 1009.3 1006.8 0.0
17/09:30am 33.3 30.2 16.6 36 10.7 SSW 28 39 15 21 1009.5 1006.9 0.0
17/09:00am 33.4 30.1 17.1 37 10.5 SSW 30 43 16 23 1009.3 1006.8 0.0
17/08:30am 32.8 29.9 17.0 38 10.2 S 28 41 15 22 1009.0 1006.5 0.0
17/08:00am 32.0 29.7 17.5 42 9.4 SSW 26 39 14 21 1008.5 1006.0 0.0
17/07:30am 31.5 31.4 18.8 46 8.4 SSW 17 28 9 15 1008.1 1005.6 0.0
17/07:00am 30.1 30.6 19.2 52 7.2 SW 15 20 8 11 1007.9 1005.3 0.0
17/06:30am 29.6 29.9 18.7 52 7.1 SW 15 20 8 11 1007.4 1004.8 0.0
17/06:00am 29.7 30.3 17.8 48 7.7 WSW 11 19 6 10 1007.1 1004.5 0.0
17/05:30am 30.0 30.4 18.1 49 7.7 WSW 13 20 7 11 1006.4 1003.8 0.0
17/05:00am 30.1 30.8 18.8 50 7.4 WSW 13 19 7 10 1005.8 1003.3 0.0
17/04:30am 30.4 31.3 18.5 49 7.8 WNW 11 19 6 10 1005.7 1003.2 0.0
17/04:00am 30.2 31.7 18.9 50 7.4 WNW 9 15 5 8 1005.4 1002.9 0.0
17/03:30am 30.3 31.3 18.7 50 7.6 WNW 11 15 6 8 1005.4 1002.9 0.0
17/03:00am 30.6 31.5 18.3 47 8.0 WSW 11 15 6 8 1005.8 1003.3 0.0
17/02:30am 31.1 31.7 18.5 47 8.3 W 13 20 7 11 1005.5 1003.0 0.0
17/02:00am 30.7 32.2 18.8 49 7.8 W 9 13 5 7 1005.4 1002.9 0.0
17/01:30am 30.7 32.5 18.8 49 7.8 W 7 11 4 6 1005.7 1003.2 0.0
17/01:00am 31.2 32.5 18.5 46 8.3 SW 9 15 5 8 1005.8 1003.3 0.0
17/12:30am 30.5 32.7 19.5 51 7.3 SSW 7 11 4 6 1006.7 1004.1 0.0
17/12:00am 30.0 32.4 20.0 55 6.7 NNW 7 17 4 9 1007.1 1004.5 0.0
 
Date/Time
CST
Temp
°C
App
Temp
°C
Dew
Point
Rel
Hum
%
Delta-T
°C
Wind Press
QNH
hPa
Press
MSL
hPa
Rain
since 9 am
mm
Dir
 
Spd
km/h
Gust
km/h
Spd
kts
Gust
kts
16/11:30pm 29.0 28.7 20.4 59 5.7 NNW 22 35 12 19 1007.5 1004.9 0.0
16/11:22pm 28.7 26.3 19.9 59 5.8 NNW 32 52 17 28 1007.7 1005.1 0.0
16/11:01pm 30.1 24.6 18.2 49 7.7 NE 44 65 24 35 1008.0 1005.5 0.0
16/11:00pm 30.7 25.5 18.8 49 7.8 NE 44 65 24 35 1008.2 1005.7 0.0
16/10:58pm 30.6 25.2 18.3 47 8.0 ENE 44 65 24 35 1008.0 1005.5 0.0
16/10:38pm 30.9 28.2 17.6 45 8.6 E 28 46 15 25 1007.6 1005.0 0.0
16/10:30pm 32.3 30.1 17.0 40 9.9 E 24 33 13 18 1007.6 1005.0 0.0
16/10:00pm 34.4 34.0 16.3 34 11.6 WNW 13 19 7 10 1005.9 1003.4 0.0
16/09:30pm 34.7 33.3 16.5 33 11.7 NW 19 26 10 14 1005.3 1002.8 0.0
16/09:00pm 34.9 33.7 16.2 32 12.0 NW 17 22 9 12 1004.8 1002.2 0.0
16/08:30pm 35.5 35.0 15.8 31 12.6 NNW 13 17 7 9 1004.4 1001.8 0.0
16/08:00pm 36.3 35.3 16.5 31 12.8 NNW 17 20 9 11 1003.8 1001.2 0.0
16/07:30pm 37.0 36.0 16.5 29 13.3 NNW 17 20 9 11 1003.5 1000.9 0.0
16/07:00pm 38.7 38.4 14.5 24 15.3 NNW 9 11 5 6 1003.3 1000.7 0.0
16/06:30pm 40.6 39.0 11.7 18 17.8 NNW 11 15 6 8 1002.9 1000.3 0.0
16/06:00pm 40.9 39.4 11.9 18 17.9 N 11 17 6 9 1002.6 1000.1 0.0
16/05:30pm 42.2 41.2 10.2 15 19.4 ESE 6 7 3 4 1002.4 999.9 0.0
16/05:00pm 41.1 40.2 11.2 17 18.2 NW 7 15 4 8 1002.4 999.9 0.0
16/04:30pm 41.9 41.0 12.7 18 18.3 WNW 9 15 5 8 1002.6 1000.1 0.0
16/04:00pm 42.2 41.4 12.9 18 18.4 NW 9 11 5 6 1003.2 1000.6 0.0
16/03:30pm 41.8 40.1 12.6 18 18.3 NNW 13 20 7 11 1003.7 1001.1 0.0
16/03:00pm 41.8 40.8 13.4 18 18.0 WNW 11 20 6 11 1004.3 1001.7 0.0
16/02:30pm 42.1 40.8 13.7 19 18.0 NNW 13 20 7 11 1004.8 1002.2 0.0
16/02:00pm 40.5 39.0 13.2 20 17.1 N 13 24 7 13 1005.6 1003.1 0.0
16/01:30pm 39.8 38.3 14.1 22 16.3 NNW 15 24 8 13 1006.0 1003.5 0.0
16/01:00pm 39.9 39.2 11.9 19 17.2 NNW 7 15 4 8 1006.7 1004.1 0.0
16/12:30pm 39.9 39.6 15.5 24 15.8 S 11 24 6 13 1006.9 1004.3 0.0
16/12:00pm 39.3 38.5 16.2 25 15.0 WSW 15 20 8 11 1007.4 1004.8 0.0
16/11:30am 38.4 37.6 16.1 27 14.4 SSW 15 26 8 14 1008.0 1005.5 0.0
16/11:00am 37.4 37.1 17.4 30 13.1 W 15 24 8 13 1008.4 1005.9 0.0
16/10:30am 36.3 37.0 19.7 37 11.2 W 15 22 8 12 1008.8 1006.3 0.0
16/10:00am 35.5 35.9 19.8 39 10.6 W 17 24 9 13 1008.9 1006.4 0.0
16/09:30am 34.2 35.2 20.2 43 9.5 WNW 15 24 8 13 1009.1 1006.6 0.0
16/09:00am 33.4 34.9 21.2 48 8.3 WNW 15 26 8 14 1009.0 1006.5 0.0
16/08:30am 32.6 33.2 21.1 50 7.8 NW 19 28 10 15 1008.9 1006.4 0.0
16/08:00am 31.7 32.4 21.5 54 7.0 NW 20 30 11 16 1008.7 1006.2 0.0

Other Formats:

Comma delimited format used in spreadsheet applications
http://www.bom.gov.au/fwo/IDD60801/IDD60801.94231.axf

JavaScript Object Notation format (JSON) in row-major order
http://www.bom.gov.au/fwo/IDD60801/IDD60801.94231.json